< < Back
Terminal Aerodrome Forecast


Current Version              Previous Versions:   1  2  3  4  5  6  7  8  9  

Terminal Aerodrome Forecast

460
FTUS42 KFFC 311700
TAFCSG
TAF
KCSG 311729Z 3118/0118 24006KT P6SM SCT040
     FM010100 00000KT P6SM SCT050
     FM011400 20005KT P6SM SCT050 SCT250=

Latest METAR

431
SAUS70 KWBC 011300 RRG
MTRCSG
METAR KCSG 011251Z 00000KT 10SM CLR 26/22 A3013 RMK AO2 SLP196
T02610217


USA.gov is the U.S. government's official web portal to all federal, state and local government web resources and services.